Temp: 9.3°C   Baro: 1005.9mb
  Wind: 2.0mph   Dir: SSW (200°)
  Rain: 0.2mm (0.0mm/hr)
  Sun: 0W/m2  Humidity: 93%

Historic data

Bath Spa Weather Station Historical Data
Daily Summary for October 27, 2022 Units:  Both    English   Metric
Daily Weekly Monthly Yearly Custom
  High: Low: Average:
Temperature: 66.6 °F /  19.2 °C 54.3 °F /  12.4 °C 60.4 °F /  15.8 °C
Dew Point: 60.6 °F /  15.9 °C 52 °F /  11.1 °C 57.2 °F /  14 °C
Humidity: 95% 79% 89%
Wind Speed: 9.6mph /  15.4km/h - 2.7mph /  4.3km/h
Wind Gust: 22mph /  35.4km/h - -
Wind- - SE
Pressure: 29.97 in /  1014.8 hPa 29.84 in /  1010.4 hPa -
Precipitation: 0.02 in /  0.51 mm    
Historical Graphs
 
 
Tabular Data for October 27, 2022
Time Temperature Dew Point Pressure Wind Wind Speed Wind Gust Humidity Rainfall Rate (Hourly) solar
00:09 54.9 °F /  12.7 °C 52.6 °F /  11.4 °C 29.97in /  1014.8hPa East 1.4mph /  2.3km/h 5mph /  8km/h 92% 0.00in /  0mm 0 W/m2
00:14 54.9 °F /  12.7 °C 52.5 °F /  11.4 °C 29.96in /  1014.4hPa ESE 0.8mph /  1.3km/h 3mph /  4.8km/h 92% 0.00in /  0mm 0 W/m2
00:19 54.7 °F /  12.6 °C 52.3 °F /  11.3 °C 29.96in /  1014.4hPa ESE 0.9mph /  1.4km/h 3mph /  4.8km/h 92% 0.00in /  0mm 0 W/m2
00:24 54.6 °F /  12.6 °C 52.3 °F /  11.3 °C 29.97in /  1014.8hPa ESE 0.5mph /  0.8km/h 2mph /  3.2km/h 92% 0.00in /  0mm 0 W/m2
00:29 54.5 °F /  12.5 °C 52.2 °F /  11.2 °C 29.96in /  1014.4hPa ESE 0.2mph /  0.3km/h 2mph /  3.2km/h 92% 0.00in /  0mm 0 W/m2
00:34 54.3 °F /  12.4 °C 52 °F /  11.1 °C 29.96in /  1014.4hPa ESE 0.9mph /  1.4km/h 2mph /  3.2km/h 92% 0.00in /  0mm 0 W/m2
00:39 54.3 °F /  12.4 °C 52 °F /  11.1 °C 29.96in /  1014.4hPa East 1.8mph /  2.9km/h 4mph /  6.4km/h 92% 0.00in /  0mm 0 W/m2
00:43 54.3 °F /  12.4 °C 52 °F /  11.1 °C 29.96in /  1014.4hPa East 2mph /  3.2km/h 5mph /  8km/h 92% 0.00in /  0mm 0 W/m2
00:49 54.3 °F /  12.4 °C 52 °F /  11.1 °C 29.95in /  1014.1hPa East 1.9mph /  3.1km/h 3mph /  4.8km/h 92% 0.00in /  0mm 0 W/m2
00:54 54.3 °F /  12.4 °C 52.2 °F /  11.2 °C 29.96in /  1014.4hPa East 2mph /  3.2km/h 5mph /  8km/h 92.6% 0.00in /  0mm 0 W/m2
00:59 54.3 °F /  12.4 °C 52.3 °F /  11.3 °C 29.96in /  1014.4hPa East 1.7mph /  2.7km/h 5mph /  8km/h 93% 0.00in /  0mm 0 W/m2
01:04 54.5 °F /  12.5 °C 52.5 °F /  11.4 °C 29.95in /  1014.1hPa East 2.5mph /  4km/h 5mph /  8km/h 93% 0.00in /  0mm 0 W/m2
01:09 54.7 °F /  12.6 °C 52.7 °F /  11.5 °C 29.95in /  1014.1hPa ESE 2.5mph /  4km/h 7mph /  11.3km/h 93% 0.00in /  0mm 0 W/m2
01:14 54.8 °F /  12.7 °C 52.8 °F /  11.6 °C 29.95in /  1014.1hPa ESE 2.1mph /  3.4km/h 7mph /  11.3km/h 93% 0.00in /  0mm 0 W/m2
01:19 54.9 °F /  12.7 °C 52.9 °F /  11.6 °C 29.95in /  1014.1hPa ESE 3.6mph /  5.8km/h 7mph /  11.3km/h 93% 0.00in /  0mm 0 W/m2
01:24 54.9 °F /  12.7 °C 52.9 °F /  11.6 °C 29.95in /  1014.1hPa East 3.6mph /  5.8km/h 9mph /  14.5km/h 93% 0.00in /  0mm 0 W/m2
01:29 54.9 °F /  12.7 °C 52.9 °F /  11.6 °C 29.95in /  1014.1hPa ESE 3mph /  4.8km/h 8mph /  12.9km/h 93% 0.00in /  0mm 0 W/m2
01:34 54.9 °F /  12.7 °C 52.9 °F /  11.6 °C 29.95in /  1014.1hPa East 3.6mph /  5.8km/h 7mph /  11.3km/h 93% 0.00in /  0mm 0 W/m2
01:39 54.9 °F /  12.7 °C 52.9 °F /  11.6 °C 29.95in /  1014.1hPa ESE 3.2mph /  5.1km/h 8mph /  12.9km/h 93% 0.00in /  0mm 0 W/m2
01:44 54.9 °F /  12.7 °C 52.9 °F /  11.6 °C 29.95in /  1014.1hPa ESE 3.9mph /  6.3km/h 9mph /  14.5km/h 93% 0.00in /  0mm 0 W/m2
01:49 55 °F /  12.8 °C 53 °F /  11.7 °C 29.95in /  1014.1hPa ESE 3.9mph /  6.3km/h 9mph /  14.5km/h 93% 0.00in /  0mm 0 W/m2
01:54 55 °F /  12.8 °C 53.1 °F /  11.7 °C 29.95in /  1014.1hPa ESE 2.1mph /  3.4km/h 8mph /  12.9km/h 93% 0.00in /  0mm 0 W/m2
01:59 55.2 °F /  12.9 °C 53.2 °F /  11.8 °C 29.94in /  1013.8hPa East 4.5mph /  7.2km/h 9mph /  14.5km/h 93% 0.00in /  0mm 0 W/m2
02:04 55.2 °F /  12.9 °C 53.2 °F /  11.8 °C 29.94in /  1013.8hPa ESE 5.5mph /  8.9km/h 13mph /  20.9km/h 93% 0.00in /  0mm 0 W/m2
02:09 55.4 °F /  13 °C 53.4 °F /  11.9 °C 29.94in /  1013.8hPa ESE 2.1mph /  3.4km/h 10mph /  16.1km/h 93% 0.00in /  0mm 0 W/m2
02:14 55.6 °F /  13.1 °C 53.6 °F /  12 °C 29.94in /  1013.8hPa ESE 4mph /  6.4km/h 9mph /  14.5km/h 93% 0.00in /  0mm 0 W/m2
02:19 55.6 °F /  13.1 °C 53.6 °F /  12 °C 29.94in /  1013.8hPa SE 3.6mph /  5.8km/h 9mph /  14.5km/h 93% 0.00in /  0mm 0 W/m2
02:24 55.6 °F /  13.1 °C 53.6 °F /  12 °C 29.94in /  1013.8hPa ESE 3.4mph /  5.5km/h 7mph /  11.3km/h 93% 0.00in /  0mm 0 W/m2
02:29 55.6 °F /  13.1 °C 53.6 °F /  12 °C 29.94in /  1013.8hPa ESE 3mph /  4.8km/h 7mph /  11.3km/h 93% 0.00in /  0mm 0 W/m2
02:34 55.6 °F /  13.1 °C 53.6 °F /  12 °C 29.94in /  1013.8hPa ESE 2.8mph /  4.5km/h 7mph /  11.3km/h 93% 0.00in /  0mm 0 W/m2
02:39 55.6 °F /  13.1 °C 53.6 °F /  12 °C 29.94in /  1013.8hPa ESE 2.7mph /  4.3km/h 7mph /  11.3km/h 93% 0.00in /  0mm 0 W/m2
02:44 55.6 °F /  13.1 °C 53.6 °F /  12 °C 29.95in /  1014.1hPa ESE 1.6mph /  2.6km/h 5mph /  8km/h 93% 0.00in /  0mm 0 W/m2
02:49 55.7 °F /  13.2 °C 53.7 °F /  12.1 °C 29.95in /  1014.1hPa ESE 1.3mph /  2.1km/h 4mph /  6.4km/h 93% 0.00in /  0mm 0 W/m2
02:54 55.7 °F /  13.2 °C 53.7 °F /  12.1 °C 29.94in /  1013.8hPa ESE 0.2mph /  0.3km/h 4mph /  6.4km/h 93% 0.00in /  0mm 0 W/m2
02:59 55.8 °F /  13.2 °C 53.8 °F /  12.1 °C 29.94in /  1013.8hPa ESE 1.4mph /  2.3km/h 3mph /  4.8km/h 93% 0.00in /  0mm 0 W/m2
03:04 55.8 °F /  13.2 °C 53.8 °F /  12.1 °C 29.94in /  1013.8hPa ESE 0.8mph /  1.3km/h 4mph /  6.4km/h 93% 0.00in /  0mm 0 W/m2
03:09 55.9 °F /  13.3 °C 53.9 °F /  12.2 °C 29.94in /  1013.8hPa ESE 0.6mph /  1km/h 4mph /  6.4km/h 93% 0.00in /  0mm 0 W/m2
03:14 55.9 °F /  13.3 °C 54 °F /  12.2 °C 29.94in /  1013.8hPa ESE 1.4mph /  2.3km/h 4mph /  6.4km/h 93% 0.00in /  0mm 0 W/m2
03:19 55.9 °F /  13.3 °C 54 °F /  12.2 °C 29.94in /  1013.8hPa Calm   3mph /  4.8km/h 93% 0.00in /  0mm 0 W/m2
03:24 56.1 °F /  13.4 °C 54.1 °F /  12.3 °C 29.94in /  1013.8hPa ESE 1.4mph /  2.3km/h 4mph /  6.4km/h 93% 0.00in /  0mm 0 W/m2
03:29 56.1 °F /  13.4 °C 54.1 °F /  12.3 °C 29.93in /  1013.4hPa Calm   4mph /  6.4km/h 93% 0.00in /  0mm 0 W/m2
03:34 56.1 °F /  13.4 °C 54.1 °F /  12.3 °C 29.93in /  1013.4hPa Calm     93% 0.00in /  0mm 0 W/m2
03:38 56.1 °F /  13.4 °C 54.1 °F /  12.3 °C 29.93in /  1013.4hPa Calm     93% 0.00in /  0mm 0 W/m2
03:44 56.1 °F /  13.4 °C 54.1 °F /  12.3 °C 29.93in /  1013.4hPa Calm     93% 0.00in /  0mm 0 W/m2
03:49 56.1 °F /  13.4 °C 54.1 °F /  12.3 °C 29.93in /  1013.4hPa ESE 0.8mph /  1.3km/h 2mph /  3.2km/h 93% 0.00in /  0mm 0 W/m2
03:54 56.2 °F /  13.4 °C 54.2 °F /  12.3 °C 29.93in /  1013.4hPa ESE 0.2mph /  0.3km/h 2mph /  3.2km/h 93% 0.00in /  0mm 0 W/m2
03:59 56.1 °F /  13.4 °C 54.1 °F /  12.3 °C 29.93in /  1013.4hPa Calm   1mph /  1.6km/h 93% 0.00in /  0mm 0 W/m2
04:04 56.1 °F /  13.4 °C 54.1 °F /  12.3 °C 29.93in /  1013.4hPa Calm     93% 0.00in /  0mm 0 W/m2
04:09 56.1 °F /  13.4 °C 54.1 °F /  12.3 °C 29.92in /  1013.1hPa Calm     93% 0.00in /  0mm 0 W/m2
04:14 56.1 °F /  13.4 °C 54.1 °F /  12.3 °C 29.92in /  1013.1hPa Calm     93% 0.00in /  0mm 0 W/m2
04:19 56.1 °F /  13.4 °C 54.1 °F /  12.3 °C 29.92in /  1013.1hPa Calm     93% 0.00in /  0mm 0 W/m2
04:24 55.9 °F /  13.3 °C 54 °F /  12.2 °C 29.91in /  1012.8hPa ESE 0.4mph /  0.6km/h 2mph /  3.2km/h 93% 0.00in /  0mm 0 W/m2
04:29 55.9 °F /  13.3 °C 54 °F /  12.2 °C 29.91in /  1012.8hPa ESE 0.2mph /  0.3km/h 2mph /  3.2km/h 93% 0.00in /  0mm 0 W/m2
04:34 55.9 °F /  13.3 °C 54 °F /  12.2 °C 29.91in /  1012.8hPa ESE 0.2mph /  0.3km/h 1mph /  1.6km/h 93% 0.00in /  0mm 0 W/m2
04:39 55.9 °F /  13.3 °C 54 °F /  12.2 °C 29.91in /  1012.8hPa ESE 0.2mph /  0.3km/h 2mph /  3.2km/h 93% 0.00in /  0mm 0 W/m2
04:44 55.9 °F /  13.3 °C 54 °F /  12.2 °C 29.91in /  1012.8hPa Calm     93% 0.00in /  0mm 0 W/m2
04:49 55.9 °F /  13.3 °C 54 °F /  12.2 °C 29.91in /  1012.8hPa Calm     93% 0.00in /  0mm 0 W/m2
04:54 55.8 °F /  13.2 °C 53.8 °F /  12.1 °C 29.91in /  1012.8hPa Calm     93% 0.00in /  0mm 0 W/m2
04:59 55.9 °F /  13.3 °C 54 °F /  12.2 °C 29.91in /  1012.8hPa ESE 0.9mph /  1.4km/h 3mph /  4.8km/h 93% 0.00in /  0mm 0 W/m2
05:04 55.9 °F /  13.3 °C 54 °F /  12.2 °C 29.91in /  1012.8hPa Calm   2mph /  3.2km/h 93% 0.00in /  0mm 0 W/m2
05:09 56.1 °F /  13.4 °C 54.1 °F /  12.3 °C 29.91in /  1012.8hPa ESE 0.2mph /  0.3km/h 3mph /  4.8km/h 93% 0.00in /  0mm 0 W/m2
05:14 56.2 °F /  13.4 °C 54.2 °F /  12.3 °C 29.91in /  1012.8hPa Calm   1mph /  1.6km/h 93% 0.00in /  0mm 0 W/m2
05:19 56.2 °F /  13.4 °C 54.2 °F /  12.3 °C 29.91in /  1012.8hPa Calm     93% 0.00in /  0mm 0 W/m2
05:24 56.3 °F /  13.5 °C 54.3 °F /  12.4 °C 29.91in /  1012.8hPa Calm     93% 0.00in /  0mm 0 W/m2
05:29 56.3 °F /  13.5 °C 54.3 °F /  12.4 °C 29.90in /  1012.4hPa Calm     93% 0.00in /  0mm 0 W/m2
05:34 56.3 °F /  13.5 °C 54.3 °F /  12.4 °C 29.90in /  1012.4hPa Calm     93% 0.00in /  0mm 0 W/m2
05:39 56.3 °F /  13.5 °C 54.3 °F /  12.4 °C 29.90in /  1012.4hPa Calm     93% 0.00in /  0mm 0 W/m2
05:44 56.4 °F /  13.6 °C 54.5 °F /  12.5 °C 29.90in /  1012.4hPa Calm     93.2% 0.00in /  0mm 0 W/m2
05:49 56.2 °F /  13.4 °C 54.4 °F /  12.4 °C 29.90in /  1012.4hPa Calm     93.4% 0.00in /  0mm 0 W/m2
05:54 56.1 °F /  13.4 °C 54.5 °F /  12.5 °C 29.90in /  1012.4hPa Calm     94% 0.00in /  0mm 0 W/m2
05:59 56.1 °F /  13.4 °C 54.5 °F /  12.5 °C 29.90in /  1012.4hPa Calm     94% 0.00in /  0mm 0 W/m2
06:04 56.1 °F /  13.4 °C 54.5 °F /  12.5 °C 29.90in /  1012.4hPa ESE 0.2mph /  0.3km/h 2mph /  3.2km/h 94% 0.00in /  0mm 0 W/m2
06:09 56.1 °F /  13.4 °C 54.5 °F /  12.5 °C 29.90in /  1012.4hPa ESE 0.7mph /  1.1km/h 2mph /  3.2km/h 94% 0.00in /  0mm 0 W/m2
06:14 56.3 °F /  13.5 °C 54.7 °F /  12.6 °C 29.90in /  1012.4hPa Calm   3mph /  4.8km/h 94% 0.00in /  0mm 0 W/m2
06:19 56.4 °F /  13.6 °C 54.8 °F /  12.7 °C 29.89in /  1012.1hPa ESE 0.8mph /  1.3km/h 3mph /  4.8km/h 94% 0.00in /  0mm 0 W/m2
06:24 56.5 °F /  13.6 °C 54.9 °F /  12.7 °C 29.89in /  1012.1hPa East 3.2mph /  5.1km/h 6mph /  9.7km/h 94% 0.00in /  0mm 0 W/m2
06:29 56.7 °F /  13.7 °C 55 °F /  12.8 °C 29.88in /  1011.7hPa East 1.2mph /  1.9km/h 4mph /  6.4km/h 94% 0.00in /  0mm 0 W/m2
06:34 56.8 °F /  13.8 °C 55.2 °F /  12.9 °C 29.88in /  1011.7hPa ESE 0.8mph /  1.3km/h 4mph /  6.4km/h 94% 0.00in /  0mm 0 W/m2
06:39 56.8 °F /  13.8 °C 55.2 °F /  12.9 °C 29.88in /  1011.7hPa ESE 1.4mph /  2.3km/h 4mph /  6.4km/h 94% 0.00in /  0mm 0 W/m2
06:44 57 °F /  13.9 °C 55.2 °F /  12.9 °C 29.88in /  1011.7hPa East 2.1mph /  3.4km/h 6mph /  9.7km/h 94% 0.00in /  0mm 0 W/m2
06:49 57 °F /  13.9 °C 55.2 °F /  12.9 °C 29.88in /  1011.7hPa ESE 1.9mph /  3.1km/h 5mph /  8km/h 94% 0.00in /  0mm 0 W/m2
06:54 57.2 °F /  14 °C 55.4 °F /  13 °C 29.88in /  1011.7hPa ESE 1.5mph /  2.4km/h 4mph /  6.4km/h 94% 0.00in /  0mm 0 W/m2
06:59 57.2 °F /  14 °C 55.4 °F /  13 °C 29.88in /  1011.7hPa East 1.6mph /  2.6km/h 5mph /  8km/h 94% 0.00in /  0mm 0 W/m2
07:04 57.3 °F /  14.1 °C 55.5 °F /  13.1 °C 29.88in /  1011.7hPa East 2.5mph /  4km/h 5mph /  8km/h 94% 0.00in /  0mm 0 W/m2
07:09 57.3 °F /  14.1 °C 55.5 °F /  13.1 °C 29.88in /  1011.7hPa ESE 3.4mph /  5.5km/h 7mph /  11.3km/h 94% 0.00in /  0mm 0 W/m2
07:14 57.4 °F /  14.1 °C 55.6 °F /  13.1 °C 29.87in /  1011.4hPa East 4.5mph /  7.2km/h 8mph /  12.9km/h 94% 0.00in /  0mm 0 W/m2
07:19 57.4 °F /  14.1 °C 55.6 °F /  13.1 °C 29.86in /  1011.1hPa East 1.7mph /  2.7km/h 7mph /  11.3km/h 94% 0.00in /  0mm 0 W/m2
07:24 57.4 °F /  14.1 °C 55.6 °F /  13.1 °C 29.86in /  1011.1hPa ENE 2.9mph /  4.7km/h 8mph /  12.9km/h 94% 0.00in /  0mm 0 W/m2
07:29 57.4 °F /  14.1 °C 55.6 °F /  13.1 °C 29.85in /  1010.7hPa ENE 4mph /  6.4km/h 8mph /  12.9km/h 94% 0.00in /  0mm 0 W/m2
07:34 57.4 °F /  14.1 °C 55.6 °F /  13.1 °C 29.85in /  1010.7hPa NE 2.5mph /  4km/h 8mph /  12.9km/h 94% 0.00in /  0mm 0 W/m2
07:39 57.4 °F /  14.1 °C 55.6 °F /  13.1 °C 29.84in /  1010.4hPa East 3.1mph /  5km/h 7mph /  11.3km/h 94% 0.00in /  0mm 0 W/m2
07:44 57.4 °F /  14.1 °C 55.6 °F /  13.1 °C 29.84in /  1010.4hPa East 1.6mph /  2.6km/h 7mph /  11.3km/h 94% 0.00in /  0mm 0 W/m2
07:49 57.2 °F /  14 °C 55.5 °F /  13.1 °C 29.84in /  1010.4hPa ESE 2.8mph /  4.5km/h 5mph /  8km/h 94.2% 0.00in /  0mm 0 W/m2
07:54 57.3 °F /  14.1 °C 55.8 °F /  13.2 °C 29.85in /  1010.7hPa SE 2.8mph /  4.5km/h 5mph /  8km/h 95% 0.00in /  0mm 0 W/m2
07:59 57.5 °F /  14.2 °C 55.7 °F /  13.2 °C 29.85in /  1010.7hPa SE 3.4mph /  5.5km/h 7mph /  11.3km/h 94% 0.00in /  0mm 0 W/m2
08:04 57.6 °F /  14.2 °C 55.9 °F /  13.3 °C 29.85in /  1010.7hPa SE 3mph /  4.8km/h 8mph /  12.9km/h 94.4% 0.00in /  0mm 5 W/m2
08:09 57.7 °F /  14.3 °C 56.3 °F /  13.5 °C 29.85in /  1010.7hPa SE 3.2mph /  5.1km/h 8mph /  12.9km/h 95% 0.00in /  0mm 7 W/m2
08:14 57.7 °F /  14.3 °C 56.3 °F /  13.5 °C 29.85in /  1010.7hPa East 4.3mph /  6.9km/h 10mph /  16.1km/h 95% 0.00in /  0mm 11 W/m2
08:19 57.7 °F /  14.3 °C 56.3 °F /  13.5 °C 29.85in /  1010.7hPa ESE 3.7mph /  6km/h 10mph /  16.1km/h 95% 0.00in /  0mm 11 W/m2
08:24 57.7 °F /  14.3 °C 56.3 °F /  13.5 °C 29.86in /  1011.1hPa ESE 4.6mph /  7.4km/h 9mph /  14.5km/h 95% 0.00in /  0mm 14 W/m2
08:29 57.7 °F /  14.3 °C 56.3 °F /  13.5 °C 29.86in /  1011.1hPa ESE 2.5mph /  4km/h 5mph /  8km/h 95% 0.00in /  0mm 18 W/m2
08:34 57.9 °F /  14.4 °C 56.5 °F /  13.6 °C 29.86in /  1011.1hPa ESE 3.7mph /  6km/h 6mph /  9.7km/h 95% 0.00in /  0mm 23 W/m2
08:39 57.9 °F /  14.4 °C 56.5 °F /  13.6 °C 29.86in /  1011.1hPa ESE 2.4mph /  3.9km/h 5mph /  8km/h 95% 0.00in /  0mm 25 W/m2
08:44 57.9 °F /  14.4 °C 56.5 °F /  13.6 °C 29.86in /  1011.1hPa ESE 2.2mph /  3.5km/h 7mph /  11.3km/h 95% 0.01in /  0.25mm 25 W/m2
08:49 58.3 °F /  14.6 °C 56.9 °F /  13.8 °C 29.86in /  1011.1hPa ESE 0.7mph /  1.1km/h 3mph /  4.8km/h 95% 0.01in /  0.25mm 28 W/m2
08:54 58.6 °F /  14.8 °C 57.2 °F /  14 °C 29.87in /  1011.4hPa SE 1.8mph /  2.9km/h 7mph /  11.3km/h 95% 0.01in /  0.25mm 40 W/m2
08:59 58.6 °F /  14.8 °C 57.2 °F /  14 °C 29.86in /  1011.1hPa ESE 2.7mph /  4.3km/h 6mph /  9.7km/h 95% 0.01in /  0.25mm 53 W/m2
09:04 58.8 °F /  14.9 °C 57.4 °F /  14.1 °C 29.87in /  1011.4hPa SE 2mph /  3.2km/h 5mph /  8km/h 95% 0.01in /  0.25mm 54 W/m2
09:09 58.6 °F /  14.8 °C 57.2 °F /  14 °C 29.87in /  1011.4hPa SE 2.5mph /  4km/h 6mph /  9.7km/h 95% 0.01in /  0.25mm 49 W/m2
09:14 58.6 °F /  14.8 °C 57.2 °F /  14 °C 29.87in /  1011.4hPa SE 4.2mph /  6.8km/h 8mph /  12.9km/h 95% 0.01in /  0.25mm 60 W/m2
09:19 58.6 °F /  14.8 °C 57.2 °F /  14 °C 29.87in /  1011.4hPa SSE 4.3mph /  6.9km/h 7mph /  11.3km/h 95% 0.01in /  0.25mm 79 W/m2
09:24 58.8 °F /  14.9 °C 57.2 °F /  14 °C 29.88in /  1011.7hPa SSE 4.9mph /  7.9km/h 7mph /  11.3km/h 94.6% 0.01in /  0.25mm 123 W/m2
09:29 58.9 °F /  14.9 °C 57.1 °F /  13.9 °C 29.87in /  1011.4hPa SE 2.5mph /  4km/h 9mph /  14.5km/h 94% 0.01in /  0.25mm 123 W/m2
09:34 59.1 °F /  15.1 °C 57.3 °F /  14.1 °C 29.88in /  1011.7hPa SE 3.9mph /  6.3km/h 7mph /  11.3km/h 94% 0.01in /  0.25mm 67 W/m2
09:39 59.2 °F /  15.1 °C 57.4 °F /  14.1 °C 29.88in /  1011.7hPa SE 3.9mph /  6.3km/h 7mph /  11.3km/h 94% 0.01in /  0.25mm 54 W/m2
09:44 59.2 °F /  15.1 °C 57.4 °F /  14.1 °C 29.88in /  1011.7hPa SE 4mph /  6.4km/h 8mph /  12.9km/h 94% 0.01in /  0.25mm 42 W/m2
09:49 59.3 °F /  15.2 °C 57.5 °F /  14.2 °C 29.88in /  1011.7hPa SE 2.9mph /  4.7km/h 5mph /  8km/h 94% 0.00in /  0mm 35 W/m2
09:54 59.3 °F /  15.2 °C 57.4 °F /  14.1 °C 29.88in /  1011.7hPa ESE 2.4mph /  3.9km/h 6mph /  9.7km/h 93.4% 0.00in /  0mm 30 W/m2
09:59 59.4 °F /  15.2 °C 57.4 °F /  14.1 °C 29.88in /  1011.7hPa East 2.8mph /  4.5km/h 5mph /  8km/h 93% 0.00in /  0mm 25 W/m2
10:04 59.5 °F /  15.3 °C 57.6 °F /  14.2 °C 29.88in /  1011.7hPa ESE 2.4mph /  3.9km/h 6mph /  9.7km/h 93% 0.00in /  0mm 23 W/m2
10:09 59.6 °F /  15.3 °C 57.7 °F /  14.3 °C 29.88in /  1011.7hPa SE 2.5mph /  4km/h 6mph /  9.7km/h 93% 0.00in /  0mm 33 W/m2
10:14 59.5 °F /  15.3 °C 57.5 °F /  14.2 °C 29.88in /  1011.7hPa SE 2.5mph /  4km/h 7mph /  11.3km/h 93% 0.00in /  0mm 26 W/m2
10:19 59.5 °F /  15.3 °C 57.5 °F /  14.2 °C 29.88in /  1011.7hPa ESE 2.6mph /  4.2km/h 7mph /  11.3km/h 93% 0.00in /  0mm 23 W/m2
10:24 59.4 °F /  15.2 °C 57.5 °F /  14.2 °C 29.88in /  1011.7hPa SE 2.2mph /  3.5km/h 5mph /  8km/h 93% 0.00in /  0mm 26 W/m2
10:29 59.4 °F /  15.2 °C 57.4 °F /  14.1 °C 29.88in /  1011.7hPa ESE 3.5mph /  5.6km/h 7mph /  11.3km/h 93% 0.00in /  0mm 37 W/m2
10:34 59.5 °F /  15.3 °C 57.5 °F /  14.2 °C 29.88in /  1011.7hPa East 3.4mph /  5.5km/h 5mph /  8km/h 93% 0.00in /  0mm 44 W/m2
10:39 59.7 °F /  15.4 °C 57.7 °F /  14.3 °C 29.88in /  1011.7hPa East 2mph /  3.2km/h 6mph /  9.7km/h 93% 0.00in /  0mm 40 W/m2
10:44 60 °F /  15.6 °C 58 °F /  14.4 °C 29.88in /  1011.7hPa ENE 2.9mph /  4.7km/h 6mph /  9.7km/h 93% 0.00in /  0mm 37 W/m2
10:49 60.1 °F /  15.6 °C 58.1 °F /  14.5 °C 29.88in /  1011.7hPa ENE 1.7mph /  2.7km/h 6mph /  9.7km/h 93% 0.00in /  0mm 40 W/m2
10:54 60.2 °F /  15.7 °C 58.2 °F /  14.6 °C 29.88in /  1011.7hPa ENE 0.8mph /  1.3km/h 3mph /  4.8km/h 93% 0.00in /  0mm 47 W/m2
10:59 60.3 °F /  15.7 °C 58.4 °F /  14.7 °C 29.88in /  1011.7hPa ENE 2mph /  3.2km/h 5mph /  8km/h 93% 0.00in /  0mm 58 W/m2
11:04 60.5 °F /  15.8 °C 58.6 °F /  14.8 °C 29.88in /  1011.7hPa ENE 1.8mph /  2.9km/h 6mph /  9.7km/h 93% 0.00in /  0mm 67 W/m2
11:09 60.6 °F /  15.9 °C 58.6 °F /  14.8 °C 29.88in /  1011.7hPa East 2.3mph /  3.7km/h 6mph /  9.7km/h 93% 0.00in /  0mm 83 W/m2
11:14 60.9 °F /  16.1 °C 58.8 °F /  14.9 °C 29.88in /  1011.7hPa ENE 2.8mph /  4.5km/h 6mph /  9.7km/h 92.8% 0.00in /  0mm 76 W/m2
11:19 61.2 °F /  16.2 °C 59.2 °F /  15.1 °C 29.88in /  1011.7hPa East 1.6mph /  2.6km/h 5mph /  8km/h 93% 0.00in /  0mm 65 W/m2
11:24 61.2 °F /  16.2 °C 58.9 °F /  14.9 °C 29.88in /  1011.7hPa East 0.6mph /  1km/h 4mph /  6.4km/h 92% 0.00in /  0mm 90 W/m2
11:29 61.3 °F /  16.3 °C 59 °F /  15 °C 29.88in /  1011.7hPa East 1.2mph /  1.9km/h 4mph /  6.4km/h 92% 0.00in /  0mm 142 W/m2
11:34 61.6 °F /  16.4 °C 59.3 °F /  15.2 °C 29.88in /  1011.7hPa East 0.2mph /  0.3km/h 4mph /  6.4km/h 92% 0.00in /  0mm 105 W/m2
11:39 61.8 °F /  16.6 °C 59.5 °F /  15.3 °C 29.89in /  1012.1hPa SE 1.2mph /  1.9km/h 3mph /  4.8km/h 92% 0.00in /  0mm 102 W/m2
11:44 61.6 °F /  16.4 °C 59.3 °F /  15.2 °C 29.89in /  1012.1hPa SE 2.5mph /  4km/h 6mph /  9.7km/h 92% 0.00in /  0mm 91 W/m2
11:49 61.5 °F /  16.4 °C 59 °F /  15 °C 29.89in /  1012.1hPa SE 2.1mph /  3.4km/h 5mph /  8km/h 91.4% 0.00in /  0mm 97 W/m2
11:54 61.6 °F /  16.4 °C 58.9 °F /  14.9 °C 29.89in /  1012.1hPa SSE 1.7mph /  2.7km/h 4mph /  6.4km/h 91% 0.00in /  0mm 153 W/m2
11:59 61.9 °F /  16.6 °C 59.2 °F /  15.1 °C 29.89in /  1012.1hPa SSE 0.8mph /  1.3km/h 7mph /  11.3km/h 91% 0.00in /  0mm 190 W/m2
12:04 62.1 °F /  16.7 °C 59.4 °F /  15.2 °C 29.89in /  1012.1hPa SSE 2.4mph /  3.9km/h 5mph /  8km/h 91% 0.00in /  0mm 178 W/m2
12:09 62.3 °F /  16.8 °C 59.4 °F /  15.2 °C 29.89in /  1012.1hPa South 3.4mph /  5.5km/h 7mph /  11.3km/h 90.4% 0.00in /  0mm 272 W/m2
12:14 62.8 °F /  17.1 °C 59.7 °F /  15.4 °C 29.89in /  1012.1hPa SSW 2.5mph /  4km/h 7mph /  11.3km/h 90% 0.00in /  0mm 244 W/m2
12:19 63 °F /  17.2 °C 59.7 °F /  15.4 °C 29.89in /  1012.1hPa SW 6.2mph /  10km/h 10mph /  16.1km/h 89.2% 0.00in /  0mm 135 W/m2
12:24 63.1 °F /  17.3 °C 59.5 °F /  15.3 °C 29.89in /  1012.1hPa SW 3.7mph /  6km/h 9mph /  14.5km/h 88% 0.00in /  0mm 111 W/m2
12:29 63.1 °F /  17.3 °C 59.5 °F /  15.3 °C 29.89in /  1012.1hPa SSW 4.9mph /  7.9km/h 10mph /  16.1km/h 88% 0.00in /  0mm 311 W/m2
12:34 63.2 °F /  17.3 °C 59.6 °F /  15.3 °C 29.90in /  1012.4hPa South 4.9mph /  7.9km/h 11mph /  17.7km/h 87.8% 0.00in /  0mm 258 W/m2
12:39 63.7 °F /  17.6 °C 59.7 °F /  15.4 °C 29.90in /  1012.4hPa SSW 4.4mph /  7.1km/h 8mph /  12.9km/h 87% 0.00in /  0mm 517 W/m2
12:44 63.8 °F /  17.7 °C 59.7 °F /  15.4 °C 29.90in /  1012.4hPa SSE 5mph /  8km/h 15mph /  24.1km/h 86.6% 0.00in /  0mm 248 W/m2
12:49 63.8 °F /  17.7 °C 59.5 °F /  15.3 °C 29.89in /  1012.1hPa South 5.1mph /  8.2km/h 10mph /  16.1km/h 86% 0.00in /  0mm 323 W/m2
12:54 63.9 °F /  17.7 °C 59.5 °F /  15.3 °C 29.89in /  1012.1hPa South 4.6mph /  7.4km/h 11mph /  17.7km/h 86% 0.00in /  0mm 251 W/m2
12:59 63.9 °F /  17.7 °C 59.5 °F /  15.3 °C 29.90in /  1012.4hPa South 4.9mph /  7.9km/h 9mph /  14.5km/h 86% 0.00in /  0mm 160 W/m2
13:04 63.8 °F /  17.7 °C 59.4 °F /  15.2 °C 29.90in /  1012.4hPa South 6mph /  9.7km/h 10mph /  16.1km/h 86% 0.00in /  0mm 142 W/m2
13:09 63.7 °F /  17.6 °C 59.4 °F /  15.2 °C 29.90in /  1012.4hPa South 3mph /  4.8km/h 10mph /  16.1km/h 86% 0.00in /  0mm 74 W/m2
13:14 63.7 °F /  17.6 °C 59.4 °F /  15.2 °C 29.90in /  1012.4hPa SSW 5.2mph /  8.4km/h 10mph /  16.1km/h 86% 0.00in /  0mm 141 W/m2
13:19 63.7 °F /  17.6 °C 59.4 °F /  15.2 °C 29.89in /  1012.1hPa South 3.7mph /  6km/h 10mph /  16.1km/h 86% 0.00in /  0mm 123 W/m2
13:24 63.7 °F /  17.6 °C 59.4 °F /  15.2 °C 29.89in /  1012.1hPa South 4.9mph /  7.9km/h 11mph /  17.7km/h 86% 0.00in /  0mm 95 W/m2
13:29 63.7 °F /  17.6 °C 59.4 °F /  15.2 °C 29.89in /  1012.1hPa SSW 5mph /  8km/h 14mph /  22.5km/h 86% 0.01in /  0.25mm 93 W/m2
13:34 63.6 °F /  17.6 °C 59.3 °F /  15.2 °C 29.89in /  1012.1hPa South 5mph /  8km/h 12mph /  19.3km/h 86% 0.01in /  0.25mm 107 W/m2
13:39 63.3 °F /  17.4 °C 59.2 °F /  15.1 °C 29.89in /  1012.1hPa SSW 4.3mph /  6.9km/h 9mph /  14.5km/h 86.6% 0.01in /  0.25mm 135 W/m2
13:44 63.3 °F /  17.4 °C 59.4 °F /  15.2 °C 29.89in /  1012.1hPa South 6.5mph /  10.5km/h 10mph /  16.1km/h 87% 0.01in /  0.25mm 244 W/m2
13:49 63.4 °F /  17.4 °C 59.4 °F /  15.2 °C 29.90in /  1012.4hPa South 4.5mph /  7.2km/h 9mph /  14.5km/h 87% 0.01in /  0.25mm 214 W/m2
13:54 63.8 °F /  17.7 °C 59.8 °F /  15.4 °C 29.89in /  1012.1hPa SSE 3.3mph /  5.3km/h 8mph /  12.9km/h 87% 0.01in /  0.25mm 399 W/m2
13:59 63.9 °F /  17.7 °C 60 °F /  15.6 °C 29.89in /  1012.1hPa SSE 2.8mph /  4.5km/h 7mph /  11.3km/h 87% 0.01in /  0.25mm 264 W/m2
14:03 64 °F /  17.8 °C 60.1 °F /  15.6 °C 29.89in /  1012.1hPa South 4.2mph /  6.8km/h 9mph /  14.5km/h 87% 0.01in /  0.25mm 216 W/m2
14:09 64.2 °F /  17.9 °C 60 °F /  15.6 °C 29.89in /  1012.1hPa SSW 4.3mph /  6.9km/h 8mph /  12.9km/h 86.4% 0.01in /  0.25mm 323 W/m2
14:14 64.5 °F /  18.1 °C 60.2 °F /  15.7 °C 29.89in /  1012.1hPa SSE 2.7mph /  4.3km/h 8mph /  12.9km/h 86% 0.01in /  0.25mm 211 W/m2
14:19 64.6 °F /  18.1 °C 60 °F /  15.6 °C 29.89in /  1012.1hPa South 4.7mph /  7.6km/h 11mph /  17.7km/h 85.2% 0.01in /  0.25mm 167 W/m2
14:24 64.7 °F /  18.2 °C 60 °F /  15.6 °C 29.89in /  1012.1hPa South 4.1mph /  6.6km/h 9mph /  14.5km/h 85% 0.01in /  0.25mm 156 W/m2
14:29 64.8 °F /  18.2 °C 59.9 °F /  15.5 °C 29.89in /  1012.1hPa SSW 2.9mph /  4.7km/h 9mph /  14.5km/h 84% 0.01in /  0.25mm 244 W/m2
14:34 64.9 °F /  18.3 °C 59.9 °F /  15.5 °C 29.89in /  1012.1hPa South 5.2mph /  8.4km/h 9mph /  14.5km/h 84% 0.00in /  0mm 309 W/m2
14:39 65.2 °F /  18.4 °C 60 °F /  15.6 °C 29.89in /  1012.1hPa SSW 5.6mph /  9km/h 13mph /  20.9km/h 83.2% 0.00in /  0mm 476 W/m2
14:44 65.7 °F /  18.7 °C 60.4 °F /  15.8 °C 29.88in /  1011.7hPa South 4.4mph /  7.1km/h 10mph /  16.1km/h 83% 0.00in /  0mm 350 W/m2
14:49 66.2 °F /  19 °C 60.5 °F /  15.8 °C 29.88in /  1011.7hPa South 5mph /  8km/h 10mph /  16.1km/h 81.8% 0.00in /  0mm 330 W/m2
14:54 66.2 °F /  19 °C 60.3 °F /  15.7 °C 29.88in /  1011.7hPa SW 4.6mph /  7.4km/h 8mph /  12.9km/h 81% 0.00in /  0mm 292 W/m2
14:59 66.1 °F /  18.9 °C 60 °F /  15.6 °C 29.88in /  1011.7hPa SSW 5.2mph /  8.4km/h 10mph /  16.1km/h 80.6% 0.00in /  0mm 165 W/m2
15:04 65.6 °F /  18.7 °C 59.6 °F /  15.3 °C 29.88in /  1011.7hPa SSW 2.5mph /  4km/h 9mph /  14.5km/h 81% 0.00in /  0mm 70 W/m2
15:09 65.5 °F /  18.6 °C 59.6 °F /  15.3 °C 29.88in /  1011.7hPa SSW 2mph /  3.2km/h 4mph /  6.4km/h 81.2% 0.00in /  0mm 322 W/m2
15:14 66 °F /  18.9 °C 60.3 °F /  15.7 °C 29.88in /  1011.7hPa South 2.4mph /  3.9km/h 5mph /  8km/h 81.6% 0.00in /  0mm 322 W/m2
15:19 66.4 °F /  19.1 °C 60.5 °F /  15.8 °C 29.88in /  1011.7hPa South 3mph /  4.8km/h 8mph /  12.9km/h 81% 0.00in /  0mm 316 W/m2
15:24 66.6 °F /  19.2 °C 60.6 °F /  15.9 °C 29.88in /  1011.7hPa SSW 4mph /  6.4km/h 9mph /  14.5km/h 80.8% 0.00in /  0mm 269 W/m2
15:29 66.4 °F /  19.1 °C 60.1 °F /  15.6 °C 29.88in /  1011.7hPa SSW 6.8mph /  10.9km/h 12mph /  19.3km/h 80% 0.00in /  0mm 250 W/m2
15:34 66 °F /  18.9 °C 59.7 °F /  15.4 °C 29.88in /  1011.7hPa South 4.9mph /  7.9km/h 9mph /  14.5km/h 80% 0.00in /  0mm 237 W/m2
15:39 66 °F /  18.9 °C 59.7 °F /  15.4 °C 29.88in /  1011.7hPa South 4.8mph /  7.7km/h 10mph /  16.1km/h 80% 0.00in /  0mm 220 W/m2
15:44 65.9 °F /  18.8 °C 59.6 °F /  15.3 °C 29.88in /  1011.7hPa South 3.7mph /  6km/h 7mph /  11.3km/h 80% 0.00in /  0mm 209 W/m2
15:49 66 °F /  18.9 °C 59.7 °F /  15.4 °C 29.88in /  1011.7hPa South 2.1mph /  3.4km/h 7mph /  11.3km/h 80% 0.00in /  0mm 202 W/m2
15:54 66.1 °F /  18.9 °C 59.9 °F /  15.5 °C 29.88in /  1011.7hPa SSW 3.2mph /  5.1km/h 5mph /  8km/h 80.3% 0.00in /  0mm 190 W/m2
15:59 66 °F /  18.9 °C 59.8 °F /  15.4 °C 29.88in /  1011.7hPa South 4.6mph /  7.4km/h 10mph /  16.1km/h 80.2% 0.00in /  0mm 178 W/m2
16:04 65.9 °F /  18.8 °C 59.6 °F /  15.3 °C 29.88in /  1011.7hPa South 5.4mph /  8.7km/h 12mph /  19.3km/h 80% 0.00in /  0mm 144 W/m2
16:09 65.6 °F /  18.7 °C 59.2 °F /  15.1 °C 29.89in /  1012.1hPa South 6.4mph /  10.3km/h 14mph /  22.5km/h 79.8% 0.00in /  0mm 65 W/m2
16:14 65.3 °F /  18.5 °C 58.6 °F /  14.8 °C 29.89in /  1012.1hPa SSE 4.8mph /  7.7km/h 14mph /  22.5km/h 79% 0.00in /  0mm 141 W/m2
16:19 65 °F /  18.3 °C 58.4 °F /  14.7 °C 29.90in /  1012.4hPa South 7.2mph /  11.6km/h 17mph /  27.4km/h 79% 0.00in /  0mm 109 W/m2
16:24 64.8 °F /  18.2 °C 58.1 °F /  14.5 °C 29.90in /  1012.4hPa South 6.5mph /  10.5km/h 15mph /  24.1km/h 79% 0.00in /  0mm 102 W/m2
16:29 64.5 °F /  18.1 °C 57.8 °F /  14.3 °C 29.90in /  1012.4hPa South 7.1mph /  11.4km/h 18mph /  29km/h 79% 0.00in /  0mm 74 W/m2
16:34 64.1 °F /  17.8 °C 57.8 °F /  14.3 °C 29.90in /  1012.4hPa South 9.6mph /  15.4km/h 22mph /  35.4km/h 80% 0.00in /  0mm 72 W/m2
16:39 64 °F /  17.8 °C 57.9 °F /  14.4 °C 29.90in /  1012.4hPa South 4.5mph /  7.2km/h 14mph /  22.5km/h 80.6% 0.00in /  0mm 56 W/m2
16:44 63.8 °F /  17.7 °C 57.8 °F /  14.3 °C 29.90in /  1012.4hPa South 7.4mph /  11.9km/h 15mph /  24.1km/h 81% 0.00in /  0mm 42 W/m2
16:49 63.6 °F /  17.6 °C 57.7 °F /  14.3 °C 29.90in /  1012.4hPa SSW 8.4mph /  13.5km/h 17mph /  27.4km/h 81% 0.00in /  0mm 42 W/m2
16:54 63.5 °F /  17.5 °C 57.9 °F /  14.4 °C 29.90in /  1012.4hPa South 6.7mph /  10.8km/h 15mph /  24.1km/h 82% 0.00in /  0mm 37 W/m2
16:59 63.3 °F /  17.4 °C 57.7 °F /  14.3 °C 29.90in /  1012.4hPa SSW 6.2mph /  10km/h 14mph /  22.5km/h 82% 0.00in /  0mm 49 W/m2
17:04 63.3 °F /  17.4 °C 57.7 °F /  14.3 °C 29.90in /  1012.4hPa SSE 5.6mph /  9km/h 15mph /  24.1km/h 82% 0.00in /  0mm 49 W/m2
17:09 63.2 °F /  17.3 °C 57.9 °F /  14.4 °C 29.90in /  1012.4hPa South 4mph /  6.4km/h 10mph /  16.1km/h 82.8% 0.00in /  0mm 42 W/m2
17:14 63.1 °F /  17.3 °C 57.9 °F /  14.4 °C 29.90in /  1012.4hPa SSW 2.8mph /  4.5km/h 7mph /  11.3km/h 83% 0.00in /  0mm 51 W/m2
17:19 63.1 °F /  17.3 °C 57.9 °F /  14.4 °C 29.90in /  1012.4hPa South 3.3mph /  5.3km/h 7mph /  11.3km/h 83% 0.00in /  0mm 25 W/m2
17:24 63.1 °F /  17.3 °C 57.9 °F /  14.4 °C 29.91in /  1012.8hPa SSW 2.8mph /  4.5km/h 7mph /  11.3km/h 83% 0.00in /  0mm 18 W/m2
17:29 63.1 °F /  17.3 °C 58.2 °F /  14.6 °C 29.91in /  1012.8hPa SW 2.9mph /  4.7km/h 7mph /  11.3km/h 84% 0.00in /  0mm 18 W/m2
17:34 63 °F /  17.2 °C 58.2 °F /  14.6 °C 29.91in /  1012.8hPa South 2.1mph /  3.4km/h 5mph /  8km/h 84% 0.00in /  0mm 18 W/m2
17:39 63.1 °F /  17.3 °C 58.3 °F /  14.6 °C 29.91in /  1012.8hPa South 1.7mph /  2.7km/h 6mph /  9.7km/h 84% 0.00in /  0mm 11 W/m2
17:44 63.1 °F /  17.3 °C 58.3 °F /  14.6 °C 29.91in /  1012.8hPa South 2.8mph /  4.5km/h 7mph /  11.3km/h 84% 0.00in /  0mm 5 W/m2
17:49 63.1 °F /  17.3 °C 58.3 °F /  14.6 °C 29.91in /  1012.8hPa South 1.7mph /  2.7km/h 7mph /  11.3km/h 84% 0.00in /  0mm 5 W/m2
17:54 63.1 °F /  17.3 °C 58.3 °F /  14.6 °C 29.91in /  1012.8hPa SSE 1.6mph /  2.6km/h 5mph /  8km/h 84% 0.00in /  0mm 0 W/m2
17:59 63.1 °F /  17.3 °C 58.3 °F /  14.6 °C 29.91in /  1012.8hPa SE 3.7mph /  6km/h 7mph /  11.3km/h 84% 0.00in /  0mm 0 W/m2
18:04 63.1 °F /  17.3 °C 58.6 °F /  14.8 °C 29.91in /  1012.8hPa SSE 1.3mph /  2.1km/h 4mph /  6.4km/h 85% 0.00in /  0mm 0 W/m2
18:09 63.1 °F /  17.3 °C 58.6 °F /  14.8 °C 29.91in /  1012.8hPa SSE 1.7mph /  2.7km/h 3mph /  4.8km/h 85% 0.00in /  0mm 0 W/m2
18:14 63.1 °F /  17.3 °C 58.6 °F /  14.8 °C 29.91in /  1012.8hPa SSE 1mph /  1.6km/h 4mph /  6.4km/h 85% 0.00in /  0mm 0 W/m2
18:19 63.1 °F /  17.3 °C 58.6 °F /  14.8 °C 29.91in /  1012.8hPa SE 1.3mph /  2.1km/h 7mph /  11.3km/h 85% 0.00in /  0mm 0 W/m2
18:24 63.1 °F /  17.3 °C 58.6 °F /  14.8 °C 29.91in /  1012.8hPa SE 1.2mph /  1.9km/h 4mph /  6.4km/h 85% 0.00in /  0mm 0 W/m2
18:29 63.1 °F /  17.3 °C 58.6 °F /  14.8 °C 29.91in /  1012.8hPa ESE 1.6mph /  2.6km/h 4mph /  6.4km/h 85% 0.00in /  0mm 0 W/m2
18:34 63.1 °F /  17.3 °C 58.7 °F /  14.8 °C 29.91in /  1012.8hPa East 3.2mph /  5.1km/h 5mph /  8km/h 85.4% 0.00in /  0mm 0 W/m2
18:39 63.1 °F /  17.3 °C 58.8 °F /  14.9 °C 29.91in /  1012.8hPa East 1.6mph /  2.6km/h 5mph /  8km/h 86% 0.00in /  0mm 0 W/m2
18:44 63.1 °F /  17.3 °C 58.8 °F /  14.9 °C 29.91in /  1012.8hPa ESE 1.2mph /  1.9km/h 4mph /  6.4km/h 86% 0.00in /  0mm 0 W/m2
18:49 63.1 °F /  17.3 °C 58.8 °F /  14.9 °C 29.91in /  1012.8hPa ESE 1.6mph /  2.6km/h 3mph /  4.8km/h 86% 0.00in /  0mm 0 W/m2
18:54 63 °F /  17.2 °C 58.7 °F /  14.8 °C 29.91in /  1012.8hPa ESE 0.8mph /  1.3km/h 3mph /  4.8km/h 86% 0.00in /  0mm 0 W/m2
18:59 63 °F /  17.2 °C 58.7 °F /  14.8 °C 29.91in /  1012.8hPa ESE 0.6mph /  1km/h 2mph /  3.2km/h 86% 0.00in /  0mm 0 W/m2
19:04 63 °F /  17.2 °C 58.6 °F /  14.8 °C 29.91in /  1012.8hPa ESE 2mph /  3.2km/h 4mph /  6.4km/h 86% 0.00in /  0mm 0 W/m2
19:09 63 °F /  17.2 °C 58.7 °F /  14.8 °C 29.91in /  1012.8hPa ESE 1.3mph /  2.1km/h 4mph /  6.4km/h 86.2% 0.01in /  0.25mm 0 W/m2
19:14 63 °F /  17.2 °C 59 °F /  15 °C 29.91in /  1012.8hPa ESE 1.6mph /  2.6km/h 4mph /  6.4km/h 87% 0.01in /  0.25mm 0 W/m2
19:19 63 °F /  17.2 °C 59 °F /  15 °C 29.91in /  1012.8hPa East 2mph /  3.2km/h 4mph /  6.4km/h 87% 0.01in /  0.25mm 0 W/m2
19:24 62.8 °F /  17.1 °C 58.8 °F /  14.9 °C 29.91in /  1012.8hPa SE 2.9mph /  4.7km/h 5mph /  8km/h 87% 0.01in /  0.25mm 0 W/m2
19:29 63 °F /  17.2 °C 59 °F /  15 °C 29.91in /  1012.8hPa SE 2mph /  3.2km/h 6mph /  9.7km/h 87% 0.01in /  0.25mm 0 W/m2
19:34 63.3 °F /  17.4 °C 59.4 °F /  15.2 °C 29.91in /  1012.8hPa SE 2.2mph /  3.5km/h 5mph /  8km/h 87% 0.01in /  0.25mm 0 W/m2
19:39 63.6 °F /  17.6 °C 59.6 °F /  15.3 °C 29.91in /  1012.8hPa SSE 2mph /  3.2km/h 5mph /  8km/h 87% 0.01in /  0.25mm 0 W/m2
19:44 63.9 °F /  17.7 °C 60 °F /  15.6 °C 29.91in /  1012.8hPa SE 1.1mph /  1.8km/h 3mph /  4.8km/h 87% 0.01in /  0.25mm 0 W/m2
19:49 63.9 °F /  17.7 °C 59.9 °F /  15.5 °C 29.91in /  1012.8hPa ESE 2.6mph /  4.2km/h 8mph /  12.9km/h 87% 0.01in /  0.25mm 0 W/m2
19:54 63.8 °F /  17.7 °C 59.8 °F /  15.4 °C 29.91in /  1012.8hPa SE 1.5mph /  2.4km/h 3mph /  4.8km/h 87% 0.01in /  0.25mm 0 W/m2
19:59 63.9 °F /  17.7 °C 59.9 °F /  15.5 °C 29.91in /  1012.8hPa East 2.6mph /  4.2km/h 6mph /  9.7km/h 87% 0.01in /  0.25mm 0 W/m2
20:04 63.9 °F /  17.7 °C 60 °F /  15.6 °C 29.91in /  1012.8hPa ESE 2.2mph /  3.5km/h 4mph /  6.4km/h 87% 0.01in /  0.25mm 0 W/m2
20:09 63.7 °F /  17.6 °C 59.4 °F /  15.2 °C 29.91in /  1012.8hPa ESE 1.9mph /  3.1km/h 8mph /  12.9km/h 86.2% 0.01in /  0.25mm 0 W/m2
20:14 63.3 °F /  17.4 °C 59.1 °F /  15.1 °C 29.90in /  1012.4hPa East 4.3mph /  6.9km/h 7mph /  11.3km/h 86.2% 0.00in /  0mm 0 W/m2
20:19 63.4 °F /  17.4 °C 59.5 °F /  15.3 °C 29.90in /  1012.4hPa East 3.6mph /  5.8km/h 7mph /  11.3km/h 87% 0.00in /  0mm 0 W/m2
20:24 63.5 °F /  17.5 °C 59.5 °F /  15.3 °C 29.90in /  1012.4hPa East 2.5mph /  4km/h 7mph /  11.3km/h 87% 0.00in /  0mm 0 W/m2
20:29 63.4 °F /  17.4 °C 59.5 °F /  15.3 °C 29.90in /  1012.4hPa East 3.5mph /  5.6km/h 8mph /  12.9km/h 87% 0.00in /  0mm 0 W/m2
20:34 63.3 °F /  17.4 °C 59.4 °F /  15.2 °C 29.90in /  1012.4hPa East 4.7mph /  7.6km/h 9mph /  14.5km/h 87% 0.00in /  0mm 0 W/m2
20:39 63.2 °F /  17.3 °C 59.3 °F /  15.2 °C 29.89in /  1012.1hPa SE 2.4mph /  3.9km/h 8mph /  12.9km/h 87% 0.00in /  0mm 0 W/m2
20:44 63.1 °F /  17.3 °C 59.2 °F /  15.1 °C 29.89in /  1012.1hPa ESE 2.5mph /  4km/h 4mph /  6.4km/h 87% 0.00in /  0mm 0 W/m2
20:49 63 °F /  17.2 °C 59 °F /  15 °C 29.89in /  1012.1hPa ESE 2.7mph /  4.3km/h 8mph /  12.9km/h 87% 0.00in /  0mm 0 W/m2
20:54 63.1 °F /  17.3 °C 59.2 °F /  15.1 °C 29.90in /  1012.4hPa ESE 2.3mph /  3.7km/h 8mph /  12.9km/h 87% 0.00in /  0mm 0 W/m2
20:59 63.1 °F /  17.3 °C 59.2 °F /  15.1 °C 29.90in /  1012.4hPa ESE 3.7mph /  6km/h 5mph /  8km/h 87% 0.00in /  0mm 0 W/m2
21:04 63.1 °F /  17.3 °C 59.2 °F /  15.1 °C 29.90in /  1012.4hPa ESE 2.7mph /  4.3km/h 5mph /  8km/h 87% 0.00in /  0mm 0 W/m2
21:09 63.1 °F /  17.3 °C 59.1 °F /  15.1 °C 29.89in /  1012.1hPa ESE 2.4mph /  3.9km/h 5mph /  8km/h 87% 0.00in /  0mm 0 W/m2
21:14 63.1 °F /  17.3 °C 59.3 °F /  15.2 °C 29.89in /  1012.1hPa ESE 3.2mph /  5.1km/h 7mph /  11.3km/h 87.5% 0.00in /  0mm 0 W/m2
21:19 63.1 °F /  17.3 °C 59.4 °F /  15.2 °C 29.89in /  1012.1hPa East 2mph /  3.2km/h 5mph /  8km/h 87.6% 0.00in /  0mm 0 W/m2
21:24 63 °F /  17.2 °C 59.1 °F /  15.1 °C 29.89in /  1012.1hPa ESE 2.6mph /  4.2km/h 6mph /  9.7km/h 87.2% 0.00in /  0mm 0 W/m2
21:29 62.9 °F /  17.2 °C 58.9 °F /  14.9 °C 29.89in /  1012.1hPa SE 2.2mph /  3.5km/h 5mph /  8km/h 87% 0.00in /  0mm 0 W/m2
21:34 62.8 °F /  17.1 °C 59.2 °F /  15.1 °C 29.89in /  1012.1hPa ESE 2.8mph /  4.5km/h 5mph /  8km/h 88% 0.00in /  0mm 0 W/m2
21:39 62.8 °F /  17.1 °C 59.2 °F /  15.1 °C 29.89in /  1012.1hPa SE 2.7mph /  4.3km/h 6mph /  9.7km/h 88% 0.00in /  0mm 0 W/m2
21:44 62.8 °F /  17.1 °C 59.2 °F /  15.1 °C 29.89in /  1012.1hPa South 3.3mph /  5.3km/h 7mph /  11.3km/h 88% 0.00in /  0mm 0 W/m2
21:49 62.7 °F /  17.1 °C 59.1 °F /  15.1 °C 29.90in /  1012.4hPa SSE 2.9mph /  4.7km/h 6mph /  9.7km/h 88% 0.00in /  0mm 0 W/m2
21:54 62.8 °F /  17.1 °C 59.2 °F /  15.1 °C 29.90in /  1012.4hPa SSE 2.9mph /  4.7km/h 7mph /  11.3km/h 88% 0.00in /  0mm 0 W/m2
21:59 62.6 °F /  17 °C 59 °F /  15 °C 29.89in /  1012.1hPa ESE 2.4mph /  3.9km/h 7mph /  11.3km/h 88% 0.00in /  0mm 0 W/m2
22:04 62.4 °F /  16.9 °C 58.8 °F /  14.9 °C 29.89in /  1012.1hPa ESE 2.5mph /  4km/h 6mph /  9.7km/h 88% 0.00in /  0mm 0 W/m2
22:09 62.3 °F /  16.8 °C 58.8 °F /  14.9 °C 29.89in /  1012.1hPa ESE 2.1mph /  3.4km/h 5mph /  8km/h 88.2% 0.00in /  0mm 0 W/m2
22:14 62.2 °F /  16.8 °C 58.6 °F /  14.8 °C 29.89in /  1012.1hPa ESE 3.2mph /  5.1km/h 6mph /  9.7km/h 88% 0.00in /  0mm 0 W/m2
22:19 62.2 °F /  16.8 °C 59 °F /  15 °C 29.88in /  1011.7hPa ESE 3.1mph /  5km/h 6mph /  9.7km/h 89% 0.00in /  0mm 0 W/m2
22:24 62.1 °F /  16.7 °C 58.8 °F /  14.9 °C 29.88in /  1011.7hPa East 2.6mph /  4.2km/h 7mph /  11.3km/h 89% 0.00in /  0mm 0 W/m2
22:29 62.1 °F /  16.7 °C 58.8 °F /  14.9 °C 29.89in /  1012.1hPa SE 2.8mph /  4.5km/h 5mph /  8km/h 89% 0.00in /  0mm 0 W/m2
22:34 62.1 °F /  16.7 °C 58.8 °F /  14.9 °C 29.89in /  1012.1hPa SE 2.6mph /  4.2km/h 5mph /  8km/h 89% 0.00in /  0mm 0 W/m2
22:39 62.1 °F /  16.7 °C 58.8 °F /  14.9 °C 29.89in /  1012.1hPa SE 4mph /  6.4km/h 8mph /  12.9km/h 89% 0.00in /  0mm 0 W/m2
22:44 62.1 °F /  16.7 °C 58.8 °F /  14.9 °C 29.88in /  1011.7hPa SE 3.9mph /  6.3km/h 10mph /  16.1km/h 89% 0.00in /  0mm 0 W/m2
22:49 62.1 °F /  16.7 °C 58.9 °F /  14.9 °C 29.89in /  1012.1hPa SSE 2.9mph /  4.7km/h 6mph /  9.7km/h 89% 0.00in /  0mm 0 W/m2
22:54 62.2 °F /  16.8 °C 59 °F /  15 °C 29.88in /  1011.7hPa SE 3.2mph /  5.1km/h 8mph /  12.9km/h 89% 0.00in /  0mm 0 W/m2
22:59 62.2 °F /  16.8 °C 59 °F /  15 °C 29.88in /  1011.7hPa SE 5.4mph /  8.7km/h 8mph /  12.9km/h 89% 0.00in /  0mm 0 W/m2
23:04 62.2 °F /  16.8 °C 59 °F /  15 °C 29.88in /  1011.7hPa SE 4mph /  6.4km/h 8mph /  12.9km/h 89% 0.00in /  0mm 0 W/m2
23:09 62.2 °F /  16.8 °C 59 °F /  15 °C 29.89in /  1012.1hPa SSE 1.7mph /  2.7km/h 8mph /  12.9km/h 89% 0.00in /  0mm 0 W/m2
23:14 62.2 °F /  16.8 °C 59 °F /  15 °C 29.89in /  1012.1hPa South 2.8mph /  4.5km/h 7mph /  11.3km/h 89% 0.00in /  0mm 0 W/m2
23:19 62.3 °F /  16.8 °C 59.1 °F /  15.1 °C 29.88in /  1011.7hPa South 3.2mph /  5.1km/h 8mph /  12.9km/h 89% 0.00in /  0mm 0 W/m2
23:24 62.4 °F /  16.9 °C 58.9 °F /  14.9 °C 29.88in /  1011.7hPa South 2.8mph /  4.5km/h 7mph /  11.3km/h 88.2% 0.00in /  0mm 0 W/m2
23:29 62.4 °F /  16.9 °C 59 °F /  15 °C 29.88in /  1011.7hPa South 3.3mph /  5.3km/h 7mph /  11.3km/h 88.4% 0.00in /  0mm 0 W/m2
23:34 62.4 °F /  16.9 °C 58.8 °F /  14.9 °C 29.88in /  1011.7hPa SSE 3.4mph /  5.5km/h 10mph /  16.1km/h 88% 0.00in /  0mm 0 W/m2
23:39 62.6 °F /  17 °C 59 °F /  15 °C 29.88in /  1011.7hPa South 3.3mph /  5.3km/h 9mph /  14.5km/h 88% 0.00in /  0mm 0 W/m2
23:44 62.6 °F /  17 °C 59 °F /  15 °C 29.88in /  1011.7hPa SSE 4.9mph /  7.9km/h 10mph /  16.1km/h 88% 0.00in /  0mm 0 W/m2
23:49 62.5 °F /  16.9 °C 58.9 °F /  14.9 °C 29.88in /  1011.7hPa SSE 3.2mph /  5.1km/h 10mph /  16.1km/h 88% 0.00in /  0mm 0 W/m2
23:54 62.4 °F /  16.9 °C 58.7 °F /  14.8 °C 29.88in /  1011.7hPa SSE 3.6mph /  5.8km/h 7mph /  11.3km/h 87.8% 0.00in /  0mm 0 W/m2
23:59 62.4 °F /  16.9 °C 58.5 °F /  14.7 °C 29.88in /  1011.7hPa SSE 2.5mph /  4km/h 7mph /  11.3km/h 87% 0.00in /  0mm 0 W/m2
Bath Spa Weather
Compliments of Weather Underground - 2 mb